Ride Results

Snowy Mountains Zone Championships (13-09-2014)
Ride distance: 80.0 km

Outcomes - Snowy Mountains Zone Championships (13-09-2014)
Division No. of Entries Retired / DNE Completed Withdrawn Ineligible V/O Percentage Completed
HW 14 - 10 - - 4 71.43%
MW 28 - 21 2 - 5 75.00%
LW 9 - 8 - - 1 88.89%
JN 1 - 0 - - 1 0.00%
Totals 52 - 39 2 - 11 75.00%
Results - Snowy Mountains Zone Championships (13-09-2014)
No. Rider Horse Place Time Leg Speeds Total
Km/Hr
H/R bpm
Heavyweight
36 Gavin Peacock Eclipse 1 (BC) 4:58:00 15.3, 17.6 16.11 43, 37, 38 (Avg:37)
6 Andrew Bailey Bullio Solute 2 5:10:00 15.1, 16.0 15.48 36, 45, 55 (Avg:50)
21 Jack Johnson Sharahd Narang 3 5:15:00 15.3, 15.1 15.24 33, 42, 43 (Avg:42)
9 Scott Peters Sharahd Lateefa 3 5:15:00 15.3, 15.1 15.24 32, 42, 42 (Avg:42)
3 Jaymee Ferguson Taeaura Shayarnah 5 6:12:00 12.7, 13.2 12.90 37, 43, 40 (Avg:41)
7 Rod Mitchell Aloha Tribal Warrior 6 6:28:00 12.2, 12.5 12.37 41, 46, 54 (Avg:50)
20 Sue Warren Lilonda Sharjah 7 7:10:00 11.7, 10.2 11.16 36, 49, 50 (Avg:49)
46 Paddy Smith Akifa Farras Shamah 8 7:31:00 10.2, 11.4 10.64 37, 44, 52 (Avg:48)
5 Christopher Bailey Razorback Mechano 9 7:33:00 10.2, 11.3 10.60 43, 42, 52 (Avg:47)
54 Woody Pilley Aloha Zulm 10 8:25:00 9.6, 9.3 9.50 23, 40, 43 (Avg:41)
13 Stephen Bennett Aloha Zac Metabolics moderate L2 0:00:00 12.7, 10.2 - 30, 46, 47 (Avg:46)
37 Peter Norman Paris Lame L2 0:00:00 13.3, 9.4 - 32, 41, 45 (Avg:43)
27 Con Bouzianis Conderosa Koukla Heart Rate L1 0:00:00 10.1 - 46, 63 (Avg:63)
25 Duncan Myers Jaminda Moondash Mustang Lame L1 0:00:00 10.1 - 43, 50 (Avg:50)
Middleweight
40 Jenny Berg Oso Ellazandra 1 (BC) 5:17:00 14.0, 17.3 15.14 33, 46, 46 (Avg:46)
41 Ben Hudson Feisty Envoy 1 5:17:00 13.9, 17.6 15.14 36, 47, 50 (Avg:48)
39 Raymond Griffiths Hazeldean Sahara 3 5:31:00 14.1, 15.1 14.50 35, 40, 51 (Avg:45)
31 Brett Willis Jamil Razah Gazelle 4 5:33:00 15.1, 13.3 14.41 40, 44, 50 (Avg:47)
47 Cathy Walton Amurath Kei 5 6:23:00 13.2, 11.4 12.53 36, 41, 48 (Avg:44)
45 Gertraud Norton Scarlet Oaks Amica 6 6:50:00 11.9, 11.3 11.71 37, 43, 60 (Avg:51)
48 Jai Ingram Le Masterprint 7 6:55:00 11.4, 11.6 11.57 40, 48, 58 (Avg:53)
8 Murray Woods Calabash Ras Ben Sakka 8 7:07:00 10.7, 12.1 11.24 38, 38, 58 (Avg:48)
18 Tayla Warren Arasarta Narhalinian 9 7:10:00 11.8, 10.1 11.16 37, 44, 51 (Avg:47)
17 Bonnie Robinson Forest Dale Dream Catcher 10 7:10:01 11.7, 10.2 11.16 34, 41, 49 (Avg:45)
12 John Symons Forest Dale Xasperation 11 7:13:00 11.9, 9.8 11.09 43, 48, 52 (Avg:50)
29 Fiona Meller Malu Vale Embers 12 7:31:00 9.9, 12.0 10.64 30, 37, 49 (Avg:43)
28 David Player Ryton Pipes of Peace 12 7:31:00 9.9, 12.0 10.64 34, 40, 46 (Avg:43)
4 Nicole Allan CJ 14 7:33:00 10.2, 11.3 10.60 37, 39, 41 (Avg:40)
24 Michaela Araldi Girilambone Amahl 15 7:38:00 10.4, 10.5 10.48 34, 43, 49 (Avg:46)
11 Bruce Carter Elijah 16 7:44:00 10.7, 9.6 10.34 33, 39, 52 (Avg:45)
51 Garry Matthews Henley Farm Kudra 17 7:47:00 10.1, 10.5 10.28 38, 52, 57 (Avg:54)
35 Alan Lindsay Kintamani Silver Motif 18 8:40:00 9.3, 9.0 9.23 32, 36, 46 (Avg:41)
33 Mark Lindsay Skeeta 18 8:40:00 9.3, 9.0 9.23 30, 44, 45 (Avg:44)
16 Victoria Bonham Duray Djuan 20 9:03:00 9.0, 8.4 8.84 44, 45, 50 (Avg:47)
15 Chris Noonan Bridle Track Kool Breeze 20 9:03:00 9.0, 8.4 8.84 34, 44, 51 (Avg:47)
50 Jeremy Banwell Blake's Heaven Caruso Widthdrawn L2 0:00:00 - - 30, 44, 46 (Avg:45)
38 Mitchell Ravallion Dahman Nile Star Lame L2 0:00:00 14.1, 13.5 - 27, 38, 46 (Avg:42)
43 Samantha Yates Kaminya Lame L2 0:00:00 15.3, 17.6 - 45, 45, 56 (Avg:50)
19 Roy Counsell Khool Widthdrawn L1 0:00:00 - - 38, 54 (Avg:54)
52 Jo Davis Kurrajong Bazinga Lame L1 0:00:00 9.6 - 36, 46 (Avg:46)
10 Karyn Sands Bevolin Nafisah Lame L1 0:00:00 11.5 - 33, 41 (Avg:41)
26 Marjorie Trudgett Trazir Amir Rhazzikh Lame P/R 0:00:00 - - 40, 48 (Avg:48)
Lightweight
32 Leanne Holz Carlwood Park Austen 1 (BC) 5:33:00 15.1, 13.3 14.41 35, 39, 49 (Avg:44)
2 Amanda Apperley Jon De Le Classic 2 6:12:00 12.7, 13.2 12.90 33, 44, 43 (Avg:43)
53 Louise Stevens Lentara Park Heather 3 7:02:00 11.8, 10.6 11.37 39, 44, 46 (Avg:45)
14 Sonya Nicholls Suncrest Ghazaal 4 7:30:00 11.5, 9.4 10.67 33, 38, 40 (Avg:39)
1 Dianne Luker Kintamani Silver Diva 5 7:47:00 10.3, 10.2 10.28 31, 42, 46 (Avg:44)
30 Sue Todd Shalacey Bear 5 7:47:00 10.3, 10.2 10.28 35, 47, 50 (Avg:48)
55 Kate Pilley Pancho 7 8:25:00 9.6, 9.3 9.50 33, 42, 43 (Avg:42)
34 Jessica Long Kintamani Silver Sorrel 8 8:40:00 9.3, 9.0 9.23 36, 47, 44 (Avg:45)
49 Elaine Kirby Excessabelle Lame L2 0:00:00 11.0, 11.9 - 28, 36, 42 (Avg:39)
Junior
42 Stacey Clarke Kordelassie Lame L1 0:00:00 14.0 - 40, 42 (Avg:42)